createdAt,value
2023-02-26T00:00:59.789Z,25.28
2023-02-26T00:01:59.777Z,25.24
2023-02-26T00:02:59.756Z,25.27
2023-02-26T00:03:59.658Z,25.24
2023-02-26T00:54:54.935Z,25.13
2023-02-26T00:55:55.894Z,25.13
2023-02-26T00:56:55.873Z,25.10
2023-02-26T00:57:55.861Z,25.15
2023-02-26T00:58:55.838Z,25.13
2023-02-26T00:59:55.821Z,25.14
2023-02-26T01:00:55.793Z,25.14
2023-02-26T01:01:55.761Z,25.11
2023-02-26T01:02:55.754Z,25.15
2023-02-26T01:03:55.790Z,25.15
2023-02-26T01:04:55.709Z,25.11
2023-02-26T01:05:55.670Z,25.11
2023-02-26T01:06:55.674Z,25.11
2023-02-26T01:07:55.620Z,25.17
2023-02-26T01:08:55.598Z,25.10
2023-02-26T01:09:55.571Z,25.13
2023-02-26T01:10:55.575Z,25.11
2023-02-26T01:11:55.540Z,25.10
2023-02-26T01:12:55.509Z,25.07
2023-02-26T01:13:55.492Z,25.08
2023-02-26T01:14:55.467Z,25.10
2023-02-26T01:15:55.561Z,25.09
2023-02-26T01:16:55.433Z,25.10
2023-02-26T01:17:55.406Z,25.08
2023-02-26T01:18:55.374Z,25.10
2023-02-26T01:19:55.360Z,25.05
2023-02-26T01:20:55.324Z,25.09
2023-02-26T01:21:55.321Z,25.08
2023-02-26T01:22:55.275Z,25.04
2023-02-26T01:23:55.239Z,25.07
2023-02-26T01:24:55.226Z,25.04
2023-02-26T01:25:55.207Z,25.07
2023-02-26T01:26:55.207Z,25.10
2023-02-26T01:27:55.156Z,25.07
2023-02-26T01:28:55.131Z,25.05
2023-02-26T01:29:55.109Z,25.08
2023-02-26T01:30:55.228Z,25.07
2023-02-26T01:31:55.446Z,25.08
2023-02-26T01:32:55.043Z,25.11
2023-02-26T01:33:55.014Z,25.07
2023-02-26T01:34:54.985Z,25.05
2023-02-26T01:35:54.970Z,25.03
2023-02-26T01:36:54.935Z,25.02
2023-02-26T01:37:54.911Z,25.04
2023-02-26T01:38:54.877Z,25.05
2023-02-26T01:39:54.836Z,25.00
2023-02-26T01:40:54.808Z,25.02
2023-02-26T01:41:54.836Z,25.03
2023-02-26T01:42:54.795Z,24.97
2023-02-26T01:43:54.729Z,24.96
2023-02-26T01:44:54.733Z,25.02
2023-02-26T01:45:54.686Z,24.94
2023-02-26T01:46:54.716Z,24.96
2023-02-26T01:47:54.623Z,24.95
2023-02-26T01:48:54.597Z,24.93
2023-02-26T01:49:54.586Z,24.89
2023-02-26T01:50:54.550Z,24.90
2023-02-26T01:51:54.529Z,24.89
2023-02-26T01:52:54.508Z,24.89
2023-02-26T01:53:54.489Z,24.86
2023-02-26T01:54:54.486Z,24.89
2023-02-26T01:55:54.446Z,24.93
2023-02-26T01:56:54.426Z,24.88
2023-02-26T01:57:54.483Z,24.85
2023-02-26T01:58:54.426Z,24.81
2023-02-26T01:59:54.372Z,24.83
2023-02-26T02:00:54.368Z,24.90
2023-02-26T02:01:54.330Z,24.81
2023-02-26T02:02:54.481Z,24.85
2023-02-26T02:03:54.313Z,24.79
2023-02-26T02:04:54.317Z,24.82
2023-02-26T02:05:54.275Z,24.84
2023-02-26T02:06:54.293Z,24.79
2023-02-26T02:07:54.272Z,24.84
2023-02-26T02:08:54.230Z,24.82
2023-02-26T02:09:54.208Z,24.79
2023-02-26T02:10:54.178Z,24.78
2023-02-26T02:11:54.186Z,24.76
2023-02-26T02:12:54.176Z,24.79
2023-02-26T02:13:54.119Z,24.76
2023-02-26T02:14:54.128Z,24.82
2023-02-26T02:15:54.080Z,24.79
2023-02-26T02:16:54.059Z,24.76
2023-02-26T02:17:54.151Z,24.78
2023-02-26T02:18:54.022Z,24.75
2023-02-26T02:19:53.998Z,24.81
2023-02-26T02:20:54.005Z,24.85
2023-02-26T02:21:53.947Z,24.82
2023-02-26T02:22:53.941Z,24.73
2023-02-26T02:23:53.912Z,24.79
2023-02-26T02:24:53.881Z,24.78
2023-02-26T02:25:53.898Z,24.78
2023-02-26T02:26:53.834Z,24.81
2023-02-26T02:27:53.810Z,24.79
2023-02-26T02:28:53.786Z,24.78
2023-02-26T02:29:53.747Z,24.76
2023-02-26T02:30:53.888Z,24.76
2023-02-26T02:31:53.944Z,24.78
2023-02-26T02:32:53.763Z,24.76
2023-02-26T02:33:53.656Z,24.82
2023-02-26T02:34:53.634Z,24.75
2023-02-26T02:35:53.670Z,24.79
2023-02-26T02:36:53.598Z,24.75
2023-02-26T02:37:53.566Z,24.75
2023-02-26T02:38:53.551Z,24.76
2023-02-26T02:39:53.562Z,24.72
2023-02-26T02:40:53.509Z,24.70
2023-02-26T02:41:53.507Z,24.71
2023-02-26T02:42:53.473Z,24.68
2023-02-26T02:43:53.453Z,24.71
2023-02-26T02:44:53.462Z,24.68
2023-02-26T02:45:54.200Z,24.68
2023-02-26T02:46:53.515Z,24.71
2023-02-26T02:47:53.334Z,24.68
2023-02-26T02:48:53.305Z,24.68
2023-02-26T02:49:53.276Z,24.65
2023-02-26T02:50:53.278Z,24.62
2023-02-26T02:51:53.229Z,24.67
2023-02-26T02:52:53.279Z,24.68
2023-02-26T02:53:53.175Z,24.65
2023-02-26T02:54:53.139Z,24.68
2023-02-26T02:55:53.124Z,24.61
2023-02-26T02:56:53.152Z,24.68
2023-02-26T02:57:53.131Z,24.64
2023-02-26T02:58:53.082Z,24.61
2023-02-26T02:59:53.077Z,24.64
2023-02-26T03:00:53.106Z,24.62
2023-02-26T03:01:53.018Z,24.60
2023-02-26T03:02:53.093Z,24.65
2023-02-26T03:03:52.983Z,24.65
2023-02-26T03:04:52.983Z,24.65
2023-02-26T03:05:52.938Z,24.61
2023-02-26T03:06:52.899Z,24.64
2023-02-26T03:07:52.905Z,24.61
2023-02-26T03:08:52.855Z,24.62
2023-02-26T03:09:52.827Z,24.65
2023-02-26T03:10:52.828Z,24.60
2023-02-26T03:11:52.789Z,24.62
2023-02-26T03:12:52.820Z,24.61
2023-02-26T03:13:52.747Z,24.60
2023-02-26T03:14:52.750Z,24.61
2023-02-26T03:15:52.727Z,24.55
2023-02-26T03:16:52.822Z,24.60
2023-02-26T03:17:52.713Z,24.60
2023-02-26T03:18:53.557Z,24.57
2023-02-26T03:19:52.642Z,24.57
2023-02-26T03:20:52.626Z,24.57
2023-02-26T03:21:52.595Z,24.53
2023-02-26T03:22:52.613Z,24.57
2023-02-26T03:23:52.573Z,24.61
2023-02-26T03:24:52.545Z,24.55
2023-02-26T03:25:52.561Z,24.54
2023-02-26T03:26:52.510Z,24.51
2023-02-26T03:27:52.491Z,24.55
2023-02-26T03:28:52.542Z,24.51
2023-02-26T03:29:52.458Z,24.53
2023-02-26T03:30:52.441Z,24.53
2023-02-26T03:31:52.583Z,24.54
2023-02-26T03:32:52.411Z,24.50
2023-02-26T03:33:52.405Z,24.51
2023-02-26T03:34:52.413Z,24.50
2023-02-26T03:35:52.377Z,24.51
2023-02-26T03:36:52.367Z,24.49
2023-02-26T03:37:52.352Z,24.46
2023-02-26T03:38:52.363Z,24.49
2023-02-26T03:39:52.359Z,24.50
2023-02-26T03:40:52.320Z,24.50
2023-02-26T03:41:52.305Z,24.46
2023-02-26T03:42:52.291Z,24.47
2023-02-26T03:43:52.288Z,24.44
2023-02-26T03:44:52.307Z,24.46
2023-02-26T03:45:52.309Z,24.44
2023-02-26T03:46:52.237Z,24.41
2023-02-26T03:47:52.223Z,24.50
2023-02-26T03:48:52.297Z,24.50
2023-02-26T03:49:52.254Z,24.47
2023-02-26T03:50:52.216Z,24.46
2023-02-26T03:51:52.163Z,24.50
2023-02-26T03:52:52.129Z,24.50
2023-02-26T03:53:52.130Z,24.43
2023-02-26T03:54:52.108Z,24.47
2023-02-26T03:55:52.094Z,24.50
2023-02-26T03:56:52.070Z,24.44
2023-02-26T03:57:52.045Z,24.47
2023-02-26T03:58:52.070Z,24.43
2023-02-26T03:59:52.021Z,24.44
2023-02-26T04:00:52.063Z,24.43
2023-02-26T04:01:51.988Z,24.44
2023-02-26T04:02:51.973Z,24.46
2023-02-26T04:03:51.951Z,24.43
2023-02-26T04:04:51.956Z,24.44
2023-02-26T04:05:51.907Z,24.47
2023-02-26T04:06:51.955Z,24.42
2023-02-26T04:07:51.874Z,24.43
2023-02-26T04:08:51.852Z,24.41
2023-02-26T04:09:51.858Z,24.37
2023-02-26T04:10:51.820Z,24.39
2023-02-26T04:11:51.796Z,24.40
2023-02-26T04:12:51.786Z,24.41
2023-02-26T04:13:51.765Z,24.40
2023-02-26T04:14:51.813Z,24.38
2023-02-26T04:15:51.729Z,24.41
2023-02-26T04:16:51.785Z,24.37
2023-02-26T04:17:51.706Z,24.41
2023-02-26T04:18:51.693Z,24.40
2023-02-26T04:19:51.718Z,24.41
2023-02-26T04:20:51.645Z,24.43
2023-02-26T04:21:51.636Z,24.39
2023-02-26T04:22:51.645Z,24.36
2023-02-26T04:23:51.604Z,24.36
2023-02-26T04:24:51.645Z,24.35
2023-02-26T04:25:51.611Z,24.32
2023-02-26T04:26:51.561Z,24.33
2023-02-26T04:27:51.545Z,24.35
2023-02-26T04:28:51.524Z,24.32
2023-02-26T04:29:51.537Z,24.32
2023-02-26T04:30:51.744Z,24.31
2023-02-26T04:31:51.525Z,24.32
2023-02-26T04:32:51.445Z,24.36
2023-02-26T04:33:51.420Z,24.29
2023-02-26T04:34:51.410Z,24.35
2023-02-26T04:35:51.387Z,24.29
2023-02-26T04:36:51.348Z,24.32
2023-02-26T04:37:51.337Z,24.36
2023-02-26T04:38:51.380Z,24.33
2023-02-26T04:39:51.313Z,24.30
2023-02-26T04:40:51.299Z,24.30
2023-02-26T04:41:51.246Z,24.28
2023-02-26T04:42:51.213Z,24.29
2023-02-26T04:43:51.203Z,24.30
2023-02-26T04:44:51.177Z,24.32
2023-02-26T04:45:51.291Z,24.32
2023-02-26T04:46:51.148Z,24.32
2023-02-26T04:47:51.115Z,24.29
2023-02-26T04:48:51.103Z,24.28
2023-02-26T04:49:51.094Z,24.30
2023-02-26T04:50:51.073Z,24.31
2023-02-26T04:51:51.170Z,24.22
2023-02-26T04:52:51.030Z,24.35
2023-02-26T04:53:51.036Z,24.33
2023-02-26T04:54:51.045Z,24.25
2023-02-26T04:55:52.406Z,24.32
2023-02-26T04:56:51.067Z,24.26
2023-02-26T04:57:51.007Z,24.23
2023-02-26T04:58:50.983Z,24.28
2023-02-26T04:59:50.971Z,24.20
2023-02-26T05:00:50.956Z,24.22
2023-02-26T05:01:50.975Z,24.22
2023-02-26T05:02:50.880Z,24.19
2023-02-26T05:03:50.854Z,24.22
2023-02-26T05:04:50.873Z,24.22
2023-02-26T05:05:50.816Z,24.18
2023-02-26T05:06:50.853Z,24.23
2023-02-26T05:07:50.781Z,24.21
2023-02-26T05:08:50.755Z,24.21
2023-02-26T05:09:50.751Z,24.19
2023-02-26T05:10:50.774Z,24.19
2023-02-26T05:11:50.695Z,24.20
2023-02-26T05:12:50.682Z,24.23
2023-02-26T05:13:50.651Z,24.20
2023-02-26T05:14:50.651Z,24.19
2023-02-26T05:15:50.663Z,24.18
2023-02-26T05:16:50.618Z,24.19
2023-02-26T05:17:50.599Z,24.20
2023-02-26T05:18:50.614Z,24.18
2023-02-26T05:19:50.562Z,24.21
2023-02-26T05:20:50.547Z,24.13
2023-02-26T05:21:50.565Z,24.18
2023-02-26T05:22:50.525Z,24.17
2023-02-26T05:23:50.505Z,24.15
2023-02-26T05:24:50.474Z,24.14
2023-02-26T05:25:50.522Z,24.15
2023-02-26T05:26:50.473Z,24.12
2023-02-26T05:27:50.444Z,24.14
2023-02-26T05:28:50.394Z,24.11
2023-02-26T05:29:51.089Z,24.12
2023-02-26T05:30:50.380Z,24.12
2023-02-26T05:31:50.430Z,24.15
2023-02-26T05:32:50.345Z,24.14
2023-02-26T05:33:50.293Z,24.12
2023-02-26T05:34:50.272Z,24.08
2023-02-26T05:35:50.300Z,24.11
2023-02-26T05:36:50.242Z,24.13
2023-02-26T05:37:50.225Z,24.11
2023-02-26T05:38:50.210Z,24.10
2023-02-26T05:39:50.180Z,24.11
2023-02-26T05:40:50.171Z,24.05
2023-02-26T05:41:50.130Z,24.08
2023-02-26T05:42:50.139Z,24.10
2023-02-26T05:43:50.096Z,24.05
2023-02-26T05:44:50.155Z,24.04
2023-02-26T05:45:50.058Z,24.01
2023-02-26T05:46:50.178Z,24.05
2023-02-26T05:47:50.029Z,24.01
2023-02-26T05:48:50.016Z,24.04
2023-02-26T05:49:50.123Z,24.02
2023-02-26T05:50:49.980Z,24.05
2023-02-26T05:51:49.962Z,24.02
2023-02-26T05:52:49.947Z,24.07
2023-02-26T05:53:49.920Z,24.02
2023-02-26T05:54:49.945Z,23.98
2023-02-26T05:55:49.898Z,24.01
2023-02-26T05:56:49.882Z,24.02
2023-02-26T05:57:49.876Z,24.01
2023-02-26T05:58:49.883Z,23.98
2023-02-26T05:59:49.876Z,24.00
2023-02-26T06:00:49.830Z,24.00
2023-02-26T06:01:49.846Z,24.02
2023-02-26T06:02:49.837Z,24.01
2023-02-26T06:03:49.775Z,23.98
2023-02-26T06:04:49.851Z,23.95
2023-02-26T06:05:49.754Z,23.98
2023-02-26T06:06:49.710Z,23.95
2023-02-26T06:07:49.698Z,23.95
2023-02-26T06:08:49.687Z,23.87
2023-02-26T06:09:49.670Z,23.89
2023-02-26T06:10:49.652Z,23.87
2023-02-26T06:11:49.666Z,23.93
2023-02-26T06:12:49.615Z,23.84
2023-02-26T06:13:49.608Z,23.84
2023-02-26T06:14:49.638Z,23.86
2023-02-26T06:15:49.621Z,23.84
2023-02-26T06:16:49.578Z,23.83
2023-02-26T06:17:50.105Z,23.80
2023-02-26T06:18:49.542Z,23.83
2023-02-26T06:19:49.563Z,23.75
2023-02-26T06:20:49.527Z,23.76
2023-02-26T06:21:49.501Z,23.72
2023-02-26T06:22:49.553Z,23.73
2023-02-26T06:23:49.437Z,23.73
2023-02-26T06:24:49.428Z,23.77
2023-02-26T06:25:49.441Z,23.73
2023-02-26T06:26:49.393Z,23.73
2023-02-26T06:27:49.383Z,23.76
2023-02-26T06:28:49.369Z,23.73
2023-02-26T06:29:49.355Z,23.69
2023-02-26T06:30:49.439Z,23.70
2023-02-26T06:31:49.447Z,23.80
2023-02-26T06:32:49.336Z,23.72
2023-02-26T06:33:49.309Z,23.70
2023-02-26T06:34:49.265Z,23.72
2023-02-26T06:35:49.283Z,23.69
2023-02-26T06:36:49.257Z,23.64
2023-02-26T06:37:49.221Z,23.61
2023-02-26T06:38:49.205Z,23.62
2023-02-26T06:39:49.193Z,23.59
2023-02-26T06:40:49.243Z,23.64
2023-02-26T06:41:49.165Z,23.71
2023-02-26T06:42:49.149Z,23.69
2023-02-26T06:43:49.138Z,23.58
2023-02-26T06:44:49.127Z,23.59
2023-02-26T06:45:49.190Z,23.57
2023-02-26T06:46:49.108Z,23.55
2023-02-26T06:47:49.103Z,23.58
2023-02-26T06:48:49.060Z,23.58
2023-02-26T06:49:49.048Z,23.55
2023-02-26T06:50:49.038Z,23.54
2023-02-26T06:51:49.022Z,23.57
2023-02-26T06:52:49.027Z,23.57
2023-02-26T06:53:48.989Z,23.54
2023-02-26T06:54:48.980Z,23.51
2023-02-26T06:55:48.973Z,23.51
2023-02-26T06:56:48.958Z,23.53
2023-02-26T06:57:49.006Z,23.50
2023-02-26T06:58:48.915Z,23.47
2023-02-26T06:59:48.926Z,23.50
2023-02-26T07:00:49.010Z,23.50
2023-02-26T07:01:48.867Z,23.48
2023-02-26T07:02:48.904Z,23.53
2023-02-26T07:03:48.845Z,23.46
2023-02-26T07:04:48.815Z,23.43
2023-02-26T07:05:48.797Z,23.42
2023-02-26T07:06:48.782Z,23.39
2023-02-26T07:07:48.800Z,23.42
2023-02-26T07:08:48.783Z,23.39
2023-02-26T07:09:48.717Z,23.42
2023-02-26T07:10:48.695Z,23.36
2023-02-26T07:11:48.679Z,23.37
2023-02-26T07:12:48.681Z,23.43
2023-02-26T07:13:48.621Z,23.33
2023-02-26T07:14:48.677Z,23.36
2023-02-26T07:15:48.567Z,23.37
2023-02-26T07:16:48.589Z,23.39
2023-02-26T07:17:48.534Z,23.32
2023-02-26T07:18:48.543Z,23.29
2023-02-26T07:19:48.496Z,23.32
2023-02-26T07:20:48.470Z,23.32
2023-02-26T07:21:48.443Z,23.32
2023-02-26T07:22:48.496Z,23.27
2023-02-26T07:23:48.408Z,23.34
2023-02-26T07:24:48.377Z,23.25
2023-02-26T07:25:48.364Z,23.25
2023-02-26T07:26:48.345Z,23.25
2023-02-26T07:27:48.379Z,23.27
2023-02-26T07:28:48.323Z,23.22
2023-02-26T07:29:48.293Z,23.27
2023-02-26T07:30:48.466Z,23.18
2023-02-26T07:31:48.396Z,23.16
2023-02-26T07:32:48.209Z,23.19
2023-02-26T07:33:48.222Z,23.16
2023-02-26T07:34:48.183Z,23.16
2023-02-26T07:35:48.138Z,23.14
2023-02-26T07:36:48.112Z,23.09
2023-02-26T07:37:48.096Z,23.08
2023-02-26T07:38:48.105Z,23.09
2023-02-26T07:39:48.070Z,23.10
2023-02-26T07:40:48.036Z,23.03
2023-02-26T07:41:48.014Z,23.05
2023-02-26T07:42:48.001Z,23.06
2023-02-26T07:43:47.999Z,23.02
2023-02-26T07:44:47.965Z,22.98
2023-02-26T07:45:47.969Z,23.02
2023-02-26T07:46:47.912Z,22.99
2023-02-26T07:47:47.891Z,22.98
2023-02-26T07:48:47.942Z,22.94
2023-02-26T07:49:47.852Z,22.93
2023-02-26T07:50:47.865Z,22.94
2023-02-26T07:51:47.821Z,22.94
2023-02-26T07:52:47.801Z,22.96
2023-02-26T07:53:47.821Z,22.90
2023-02-26T07:54:47.760Z,22.92
2023-02-26T07:55:47.761Z,22.89
2023-02-26T07:56:47.719Z,22.89
2023-02-26T07:57:47.740Z,22.84
2023-02-26T07:58:47.718Z,22.92
2023-02-26T07:59:47.657Z,22.93
2023-02-26T08:00:47.648Z,22.90
2023-02-26T08:01:47.711Z,22.87
2023-02-26T08:02:47.635Z,22.87
2023-02-26T08:03:47.617Z,22.83
2023-02-26T08:04:47.564Z,22.87
2023-02-26T08:05:47.544Z,22.83
2023-02-26T08:06:47.602Z,22.86
2023-02-26T08:07:47.514Z,22.87
2023-02-26T08:08:47.497Z,22.86
2023-02-26T08:09:47.499Z,22.83
2023-02-26T08:10:47.496Z,22.83
2023-02-26T08:11:47.457Z,22.84
2023-02-26T08:12:47.455Z,22.81
2023-02-26T08:13:47.461Z,22.77
2023-02-26T08:14:47.406Z,22.77
2023-02-26T08:15:47.486Z,22.79
2023-02-26T08:16:47.369Z,22.80
2023-02-26T08:17:47.371Z,22.77
2023-02-26T08:18:47.307Z,22.76
2023-02-26T08:19:47.286Z,22.73
2023-02-26T08:20:47.305Z,22.73
2023-02-26T08:21:47.913Z,22.71
2023-02-26T08:22:47.254Z,22.73
2023-02-26T08:23:47.219Z,22.76
2023-02-26T08:24:47.194Z,22.73
2023-02-26T08:25:47.229Z,22.70
2023-02-26T08:26:47.159Z,22.72
2023-02-26T08:27:47.124Z,22.73
2023-02-26T08:28:47.104Z,22.69
2023-02-26T08:29:47.098Z,22.65
2023-02-26T08:30:47.159Z,22.69
2023-02-26T08:31:47.210Z,22.67
2023-02-26T08:32:47.202Z,22.71
2023-02-26T08:33:47.056Z,22.70
2023-02-26T08:34:47.048Z,22.68
2023-02-26T08:35:47.048Z,22.73
2023-02-26T08:36:46.990Z,22.72
2023-02-26T08:37:46.968Z,22.67
2023-02-26T08:38:46.970Z,22.70
2023-02-26T08:39:46.958Z,22.64
2023-02-26T08:40:46.915Z,22.70
2023-02-26T08:41:46.908Z,22.66
2023-02-26T08:42:46.896Z,22.67
2023-02-26T08:43:46.901Z,22.63
2023-02-26T08:44:46.952Z,22.67
2023-02-26T08:45:46.873Z,22.69
2023-02-26T08:46:46.913Z,22.64
2023-02-26T08:47:56.390Z,22.58
2023-02-26T08:48:46.845Z,22.60
2023-02-26T08:49:46.813Z,22.60
2023-02-26T08:50:46.820Z,22.55
2023-02-26T08:51:46.760Z,22.60
2023-02-26T08:52:46.746Z,22.55
2023-02-26T08:53:46.735Z,22.54
2023-02-26T08:54:46.760Z,22.55
2023-02-26T08:55:46.809Z,22.57
2023-02-26T08:56:46.751Z,22.51
2023-02-26T08:57:46.686Z,22.57
2023-02-26T08:58:46.676Z,22.48
2023-02-26T08:59:46.662Z,22.48
2023-02-26T09:00:46.650Z,22.50
2023-02-26T09:01:46.768Z,22.54
2023-02-26T09:02:46.681Z,22.57
2023-02-26T09:03:46.586Z,22.53
2023-02-26T09:04:46.568Z,22.48
2023-02-26T09:05:46.557Z,22.47
2023-02-26T09:06:46.542Z,22.51
2023-02-26T09:07:46.562Z,22.54
2023-02-26T09:08:46.508Z,22.51
2023-02-26T09:09:46.492Z,22.52
2023-02-26T09:10:46.513Z,22.53
2023-02-26T09:11:46.447Z,22.51
2023-02-26T09:12:46.464Z,22.51
2023-02-26T09:13:46.412Z,22.56
2023-02-26T09:14:46.405Z,22.51
2023-02-26T09:15:46.388Z,22.44
2023-02-26T09:16:46.406Z,22.54
2023-02-26T09:17:46.401Z,22.50
2023-02-26T09:18:46.343Z,22.47
2023-02-26T09:19:46.328Z,22.53
2023-02-26T09:20:46.320Z,22.56
2023-02-26T09:21:46.280Z,22.49
2023-02-26T09:22:46.259Z,22.47
2023-02-26T09:23:46.256Z,22.51
2023-02-26T09:24:46.270Z,22.51
2023-02-26T09:25:46.230Z,22.54
2023-02-26T09:26:46.250Z,22.47
2023-02-26T09:27:46.205Z,22.51
2023-02-26T09:28:46.229Z,22.50
2023-02-26T09:29:46.191Z,22.50
2023-02-26T09:30:46.189Z,22.49
2023-02-26T09:31:46.383Z,22.49
2023-02-26T09:32:46.257Z,22.56
2023-02-26T09:33:46.170Z,22.53
2023-02-26T09:34:46.135Z,22.52
2023-02-26T09:35:46.104Z,22.49
2023-02-26T09:36:46.111Z,22.52
2023-02-26T09:37:46.095Z,22.51
2023-02-26T09:38:46.127Z,22.52
2023-02-26T09:39:46.090Z,22.52
2023-02-26T09:40:46.082Z,22.49
2023-02-26T09:41:46.036Z,22.51
2023-02-26T09:42:46.038Z,22.51
2023-02-26T09:43:46.020Z,22.48
2023-02-26T09:44:45.977Z,22.48
2023-02-26T09:45:46.052Z,22.51
2023-02-26T09:46:45.952Z,22.52
2023-02-26T09:47:45.926Z,22.49
2023-02-26T09:48:45.903Z,22.51
2023-02-26T09:49:45.891Z,22.53
2023-02-26T09:50:45.870Z,22.52
2023-02-26T09:51:45.857Z,22.48
2023-02-26T09:52:45.849Z,22.52
2023-02-26T09:53:45.840Z,22.49
2023-02-26T09:54:45.830Z,22.53
2023-02-26T09:55:45.811Z,22.55
2023-02-26T09:56:45.821Z,22.52
2023-02-26T09:57:45.800Z,22.52
2023-02-26T09:58:45.849Z,22.53
2023-02-26T09:59:45.773Z,22.55
2023-02-26T10:00:45.746Z,22.60
2023-02-26T10:01:45.759Z,22.61
2023-02-26T10:02:45.720Z,22.58
2023-02-26T10:03:45.716Z,22.60
2023-02-26T10:04:45.683Z,22.56
2023-02-26T10:05:45.676Z,22.61
2023-02-26T10:06:45.662Z,22.59
2023-02-26T10:07:45.619Z,22.58
2023-02-26T10:08:45.594Z,22.62
2023-02-26T10:09:45.605Z,22.58
2023-02-26T10:10:45.577Z,22.64
2023-02-26T10:11:45.576Z,22.64
2023-02-26T10:12:45.528Z,22.62
2023-02-26T10:13:57.104Z,22.67
2023-02-26T10:14:45.553Z,22.67
2023-02-26T10:15:45.478Z,22.67
2023-02-26T10:16:45.501Z,22.65
2023-02-26T10:17:45.444Z,22.68
2023-02-26T10:18:45.414Z,22.67
2023-02-26T10:19:45.438Z,22.70
2023-02-26T10:20:45.517Z,22.71
2023-02-26T10:21:45.351Z,22.76
2023-02-26T10:22:47.197Z,22.70
2023-02-26T10:23:45.337Z,22.73
2023-02-26T10:24:45.329Z,22.74
2023-02-26T10:25:45.278Z,22.73
2023-02-26T10:26:45.248Z,22.73
2023-02-26T10:27:45.223Z,22.76
2023-02-26T10:28:47.198Z,22.70
2023-02-26T10:29:45.200Z,22.71
2023-02-26T10:30:45.232Z,22.77
2023-02-26T10:31:45.261Z,22.80
2023-02-26T10:32:45.272Z,22.76
2023-02-26T10:33:45.108Z,22.77
2023-02-26T10:34:45.086Z,22.76
2023-02-26T10:35:45.070Z,22.79
2023-02-26T10:36:45.066Z,22.78
2023-02-26T10:37:45.026Z,22.77
2023-02-26T10:38:45.000Z,22.76
2023-02-26T10:39:45.015Z,22.79
2023-02-26T10:40:44.973Z,22.83
2023-02-26T10:41:44.979Z,22.79
2023-02-26T10:42:44.925Z,22.80
2023-02-26T10:43:44.912Z,22.80
2023-02-26T10:44:44.902Z,22.80
2023-02-26T10:45:44.932Z,22.80
2023-02-26T10:46:44.871Z,22.81
2023-02-26T10:47:44.803Z,22.85
2023-02-26T10:48:44.785Z,22.89
2023-02-26T10:49:44.766Z,22.82
2023-02-26T10:50:44.855Z,22.85
2023-02-26T10:51:44.747Z,22.86
2023-02-26T10:52:44.706Z,22.83
2023-02-26T10:53:44.679Z,22.85
2023-02-26T10:54:44.676Z,22.91
2023-02-26T10:55:44.669Z,22.94
2023-02-26T10:56:44.642Z,22.87
2023-02-26T10:57:44.618Z,22.88
2023-02-26T10:58:44.590Z,22.85
2023-02-26T10:59:44.566Z,22.88
2023-02-26T11:00:44.556Z,22.89
2023-02-26T11:01:44.679Z,22.92
2023-02-26T11:02:44.615Z,22.84
2023-02-26T11:03:44.516Z,22.85
2023-02-26T11:04:44.483Z,22.88
2023-02-26T11:05:44.478Z,22.91
2023-02-26T11:06:44.441Z,22.91
2023-02-26T11:07:44.448Z,22.91
2023-02-26T11:08:44.401Z,22.89
2023-02-26T11:09:44.389Z,22.92
2023-02-26T11:10:44.372Z,22.91
2023-02-26T11:11:44.375Z,22.92
2023-02-26T11:12:44.374Z,22.91
2023-02-26T11:13:44.325Z,22.92
2023-02-26T11:14:44.281Z,22.97
2023-02-26T11:15:44.273Z,22.95
2023-02-26T11:16:44.261Z,22.99
2023-02-26T11:17:44.226Z,22.91
2023-02-26T11:18:44.212Z,22.94
2023-02-26T11:19:44.162Z,22.96
2023-02-26T11:20:44.128Z,22.94
2023-02-26T11:21:44.111Z,22.97
2023-02-26T11:22:44.146Z,22.96
2023-02-26T11:23:44.059Z,22.96
2023-02-26T11:24:44.040Z,22.93
2023-02-26T11:25:44.016Z,22.97
2023-02-26T11:26:43.994Z,22.93
2023-02-26T11:27:43.990Z,22.93
2023-02-26T11:28:43.949Z,22.92
2023-02-26T11:29:43.910Z,22.90
2023-02-26T11:30:44.004Z,22.94
2023-02-26T11:31:43.922Z,22.90
2023-02-26T11:32:43.913Z,22.88
2023-02-26T11:33:43.813Z,22.93
2023-02-26T11:34:43.788Z,22.94
2023-02-26T11:35:43.744Z,22.92
2023-02-26T11:36:43.741Z,22.94
2023-02-26T11:37:43.717Z,22.96
2023-02-26T11:38:43.708Z,22.93
2023-02-26T11:39:43.624Z,22.97
2023-02-26T11:40:43.597Z,22.91
2023-02-26T11:41:43.587Z,22.94
2023-02-26T11:42:43.578Z,22.93
2023-02-26T11:43:44.953Z,22.96
2023-02-26T11:44:43.647Z,22.91
2023-02-26T11:45:43.643Z,22.92
2023-02-26T11:46:43.609Z,22.90
2023-02-26T11:47:43.587Z,22.94
2023-02-26T11:48:43.603Z,22.96
2023-02-26T11:49:43.551Z,22.92
2023-02-26T11:50:43.651Z,22.96
2023-02-26T11:51:43.512Z,22.96
2023-02-26T11:52:43.483Z,22.94
2023-02-26T11:53:43.492Z,22.98
2023-02-26T11:54:43.500Z,22.93
2023-02-26T11:55:43.420Z,22.94
2023-02-26T11:56:43.420Z,22.96
2023-02-26T11:57:43.391Z,22.92
2023-02-26T11:58:43.416Z,22.94
2023-02-26T11:59:43.335Z,22.96
2023-02-26T12:00:43.313Z,22.93
2023-02-26T12:01:43.318Z,22.95
2023-02-26T12:02:43.368Z,22.92
2023-02-26T12:03:43.381Z,22.96
2023-02-26T12:04:43.263Z,22.95
2023-02-26T12:05:43.242Z,22.93
2023-02-26T12:06:43.254Z,22.94
2023-02-26T12:07:43.214Z,22.90
2023-02-26T12:08:43.241Z,22.93
2023-02-26T12:09:43.182Z,22.92
2023-02-26T12:10:43.250Z,22.98
2023-02-26T12:11:43.150Z,22.89
2023-02-26T12:12:43.131Z,22.92
2023-02-26T12:13:43.122Z,22.98
2023-02-26T12:14:43.098Z,22.97
2023-02-26T12:15:43.161Z,22.99
2023-02-26T12:16:43.046Z,22.93
2023-02-26T12:17:43.032Z,22.98
2023-02-26T12:18:43.005Z,22.98
2023-02-26T12:19:42.984Z,22.99
2023-02-26T12:20:42.983Z,22.99
2023-02-26T12:21:42.929Z,23.02
2023-02-26T12:22:42.927Z,22.99
2023-02-26T12:23:42.876Z,22.98
2023-02-26T12:24:42.846Z,23.01
2023-02-26T12:25:42.827Z,22.97
2023-02-26T12:26:42.859Z,22.99
2023-02-26T12:27:42.778Z,22.98
2023-02-26T12:28:42.750Z,22.91
2023-02-26T12:29:42.755Z,23.03
2023-02-26T12:30:42.723Z,22.99
2023-02-26T12:31:42.825Z,22.98
2023-02-26T12:32:42.808Z,23.01
2023-02-26T12:33:42.661Z,22.99
2023-02-26T12:34:42.623Z,23.03
2023-02-26T12:35:42.604Z,22.98
2023-02-26T12:36:48.902Z,23.01
2023-02-26T12:37:42.561Z,22.99
2023-02-26T12:38:42.603Z,23.01
2023-02-26T12:39:42.532Z,23.01
2023-02-26T12:40:42.528Z,22.97
2023-02-26T12:41:42.525Z,23.04
2023-02-26T12:42:42.497Z,23.04
2023-02-26T12:43:42.454Z,23.01
2023-02-26T12:44:42.427Z,23.05
2023-02-26T12:45:42.414Z,23.04
2023-02-26T12:46:42.492Z,23.04
2023-02-26T12:47:42.375Z,23.05
2023-02-26T12:48:42.352Z,23.04
2023-02-26T12:49:42.330Z,23.05
2023-02-26T12:50:42.304Z,23.01
2023-02-26T12:51:42.276Z,23.04
2023-02-26T12:52:42.254Z,23.03
2023-02-26T12:53:42.246Z,23.05
2023-02-26T12:54:42.238Z,23.01
2023-02-26T12:55:42.179Z,23.05
2023-02-26T12:56:42.148Z,22.99
2023-02-26T12:57:42.144Z,23.07
2023-02-26T12:58:42.128Z,23.03
2023-02-26T12:59:42.143Z,23.01
2023-02-26T13:00:42.098Z,23.05
2023-02-26T13:01:55.977Z,23.07
2023-02-26T13:02:42.014Z,23.07
2023-02-26T13:03:42.002Z,23.04
2023-02-26T13:04:41.987Z,23.07
2023-02-26T13:05:41.935Z,23.07
2023-02-26T13:06:41.923Z,23.10
2023-02-26T13:07:41.892Z,23.07
2023-02-26T13:08:41.867Z,23.07
2023-02-26T13:09:41.863Z,23.13
2023-02-26T13:10:41.842Z,23.10
2023-02-26T13:11:41.793Z,23.05
2023-02-26T13:12:41.762Z,23.07
2023-02-26T13:13:41.740Z,23.05
2023-02-26T13:14:41.710Z,23.05
2023-02-26T13:15:41.708Z,23.04
2023-02-26T13:16:41.746Z,23.04
2023-02-26T13:17:41.624Z,23.05
2023-02-26T13:18:41.600Z,23.05
2023-02-26T13:19:41.597Z,23.05
2023-02-26T13:20:41.565Z,23.07
2023-02-26T13:21:41.539Z,23.01
2023-02-26T13:22:41.518Z,23.05
2023-02-26T13:23:41.518Z,23.07
2023-02-26T13:24:41.530Z,23.05
2023-02-26T13:25:41.515Z,23.04
2023-02-26T13:26:41.477Z,23.07
2023-02-26T13:27:41.432Z,23.01
2023-02-26T13:28:41.424Z,23.07
2023-02-26T13:29:41.368Z,23.04
2023-02-26T13:30:41.344Z,23.04
2023-02-26T13:31:41.681Z,23.03
2023-02-26T13:32:41.474Z,23.07
2023-02-26T13:33:41.257Z,23.03
2023-02-26T13:34:41.226Z,23.05
2023-02-26T13:35:41.194Z,23.10
2023-02-26T13:36:41.183Z,23.11
2023-02-26T13:37:41.137Z,23.05
2023-02-26T13:38:41.115Z,23.05
2023-02-26T13:39:41.173Z,23.05
2023-02-26T13:40:41.066Z,23.10
2023-02-26T13:41:41.041Z,23.16
2023-02-26T13:42:41.040Z,23.08